createdAt,value
2022-10-19T00:01:52.527Z,12.30
2022-10-19T00:04:19.340Z,12.20
2022-10-19T00:06:51.765Z,12.20
2022-10-19T00:09:31.666Z,12.20
2022-10-19T00:12:11.242Z,12.20
2022-10-19T00:15:03.771Z,12.20
2022-10-19T00:17:35.053Z,12.20
2022-10-19T00:20:11.840Z,12.10
2022-10-19T00:25:43.587Z,12.10
2022-10-19T00:28:22.670Z,12.10
2022-10-19T00:31:37.079Z,12.10
2022-10-19T00:37:19.398Z,12.10
2022-10-19T00:40:02.562Z,12.00
2022-10-19T00:42:41.723Z,12.00
2022-10-19T00:45:26.105Z,12.00
2022-10-19T00:48:07.975Z,12.00
2022-10-19T00:50:38.933Z,12.00
2022-10-19T00:53:07.833Z,12.00
2022-10-19T00:55:37.848Z,12.00
2022-10-19T00:58:08.151Z,12.00
2022-10-19T01:00:42.872Z,12.00
2022-10-19T01:03:11.445Z,11.90
2022-10-19T01:05:45.762Z,11.90
2022-10-19T01:11:28.897Z,11.90
2022-10-19T01:14:02.155Z,11.90
2022-10-19T01:16:40.046Z,11.90
2022-10-19T01:19:21.283Z,11.90
2022-10-19T01:21:55.862Z,11.90
2022-10-19T01:24:47.912Z,11.90
2022-10-19T01:27:48.116Z,11.90
2022-10-19T01:30:17.967Z,11.90
2022-10-19T01:33:11.375Z,11.80
2022-10-19T01:35:39.662Z,11.80
2022-10-19T01:38:20.178Z,11.80
2022-10-19T01:40:59.653Z,11.80
2022-10-19T01:43:31.926Z,11.80
2022-10-19T01:46:23.190Z,11.70
2022-10-19T01:48:59.092Z,11.80
2022-10-19T01:51:39.611Z,11.70
2022-10-19T01:54:10.176Z,11.70
2022-10-19T01:56:54.471Z,11.70
2022-10-19T01:59:26.942Z,11.60
2022-10-19T02:01:55.195Z,11.60
2022-10-19T02:04:28.573Z,11.60
2022-10-19T02:06:59.914Z,11.50
2022-10-19T02:09:36.634Z,11.50
2022-10-19T02:12:07.711Z,11.50
2022-10-19T02:14:44.484Z,11.50
2022-10-19T02:17:20.615Z,11.40
2022-10-19T02:19:50.763Z,11.40
2022-10-19T02:22:23.911Z,11.40
2022-10-19T02:24:58.620Z,11.30
2022-10-19T02:27:37.600Z,11.30
2022-10-19T02:32:48.061Z,11.30
2022-10-19T02:35:29.829Z,11.30
2022-10-19T02:38:01.885Z,11.30
2022-10-19T02:40:43.579Z,11.30
2022-10-19T02:43:19.362Z,11.30
2022-10-19T02:45:57.528Z,11.20
2022-10-19T02:48:26.346Z,11.30
2022-10-19T02:51:00.557Z,11.30
2022-10-19T02:53:27.642Z,11.30
2022-10-19T02:56:05.380Z,11.30
2022-10-19T02:58:40.356Z,11.30
2022-10-19T03:01:09.379Z,11.30
2022-10-19T03:03:38.556Z,11.30
2022-10-19T03:06:05.477Z,11.30
2022-10-19T03:08:38.050Z,11.30
2022-10-19T03:11:04.905Z,11.30
2022-10-19T03:13:38.071Z,11.40
2022-10-19T03:16:41.487Z,11.40
2022-10-19T03:19:20.826Z,11.50
2022-10-19T03:21:52.172Z,11.50
2022-10-19T03:24:22.697Z,11.50
2022-10-19T03:26:57.323Z,11.50
2022-10-19T03:29:44.746Z,11.60
2022-10-19T03:32:41.594Z,11.60
2022-10-19T03:35:30.090Z,11.60
2022-10-19T03:37:56.490Z,11.60
2022-10-19T03:40:22.915Z,11.60
2022-10-19T03:42:49.319Z,11.60
2022-10-19T03:45:15.860Z,11.50
2022-10-19T03:47:42.264Z,11.50
2022-10-19T03:50:11.158Z,11.50
2022-10-19T03:52:37.580Z,11.50
2022-10-19T03:55:04.200Z,11.40
2022-10-19T03:57:30.724Z,11.30
2022-10-19T03:59:57.226Z,11.30
2022-10-19T04:02:23.631Z,11.30
2022-10-19T04:04:50.055Z,11.20
2022-10-19T04:07:16.460Z,11.10
2022-10-19T04:09:42.867Z,11.00
2022-10-19T04:12:09.284Z,11.10
2022-10-19T04:14:52.527Z,11.00
2022-10-19T04:17:22.124Z,11.00
2022-10-19T04:19:48.534Z,11.00
2022-10-19T04:22:15.303Z,11.00
2022-10-19T04:24:41.823Z,11.00
2022-10-19T04:27:08.231Z,11.00
2022-10-19T04:29:34.795Z,11.00
2022-10-19T04:32:01.223Z,11.00
2022-10-19T04:34:27.645Z,11.10
2022-10-19T04:36:54.082Z,11.20
2022-10-19T04:39:20.514Z,11.20
2022-10-19T04:41:46.931Z,11.20
2022-10-19T04:44:13.448Z,11.30
2022-10-19T04:46:40.423Z,11.30
2022-10-19T04:49:06.959Z,11.40
2022-10-19T04:51:33.519Z,11.40
2022-10-19T04:54:00.108Z,11.40
2022-10-19T04:56:27.124Z,11.40
2022-10-19T04:58:59.707Z,11.50
2022-10-19T05:01:27.132Z,11.50
2022-10-19T05:06:30.162Z,11.50
2022-10-19T05:08:56.708Z,11.60
2022-10-19T05:11:23.405Z,11.50
2022-10-19T05:13:50.261Z,11.50
2022-10-19T05:16:21.538Z,11.60
2022-10-19T05:19:01.525Z,11.60
2022-10-19T05:21:28.993Z,11.60
2022-10-19T05:23:56.206Z,11.70
2022-10-19T05:26:23.649Z,11.70
2022-10-19T05:28:51.125Z,11.70
2022-10-19T05:31:19.152Z,11.80
2022-10-19T05:33:45.711Z,11.80
2022-10-19T05:36:25.419Z,11.80
2022-10-19T05:38:52.630Z,11.70
2022-10-19T05:41:20.099Z,11.70
2022-10-19T05:43:47.554Z,11.70
2022-10-19T05:46:15.074Z,11.80
2022-10-19T05:48:41.571Z,11.70
2022-10-19T05:51:10.303Z,11.70
2022-10-19T05:56:09.055Z,11.70
2022-10-19T05:58:35.570Z,11.70
2022-10-19T06:01:02.498Z,11.70
2022-10-19T06:03:29.116Z,11.70
2022-10-19T06:05:55.813Z,11.70
2022-10-19T06:08:22.902Z,11.70
2022-10-19T06:10:49.475Z,11.70
2022-10-19T06:13:17.138Z,11.70
2022-10-19T06:15:43.992Z,11.70
2022-10-19T06:18:12.011Z,11.80
2022-10-19T06:20:41.533Z,11.80
2022-10-19T06:23:08.636Z,11.80
2022-10-19T06:25:35.592Z,11.80
2022-10-19T06:28:02.344Z,11.80
2022-10-19T06:30:28.890Z,11.80
2022-10-19T06:32:55.548Z,11.80
2022-10-19T06:35:22.012Z,11.80
2022-10-19T06:37:48.422Z,11.80
2022-10-19T06:40:15.831Z,11.90
2022-10-19T06:42:42.332Z,11.90
2022-10-19T06:45:09.777Z,11.90
2022-10-19T06:47:36.884Z,11.90
2022-10-19T06:50:04.933Z,11.90
2022-10-19T06:52:32.523Z,11.90
2022-10-19T06:54:59.253Z,11.90
2022-10-19T06:57:25.723Z,11.90
2022-10-19T06:59:53.708Z,12.00
2022-10-19T07:02:20.463Z,12.10
2022-10-19T07:04:46.924Z,12.30
2022-10-19T07:07:13.343Z,12.50
2022-10-19T07:09:39.915Z,12.60
2022-10-19T07:12:06.511Z,12.90
2022-10-19T07:14:38.563Z,13.10
2022-10-19T07:17:05.682Z,13.30
2022-10-19T07:19:32.380Z,13.60
2022-10-19T07:21:58.792Z,13.90
2022-10-19T07:24:25.494Z,14.50
2022-10-19T07:26:51.960Z,15.50
2022-10-19T07:29:18.503Z,17.00
2022-10-19T07:31:44.929Z,18.60
2022-10-19T07:34:11.994Z,20.60
2022-10-19T07:36:39.565Z,22.60
2022-10-19T07:39:07.175Z,24.10
2022-10-19T07:41:34.683Z,25.10
2022-10-19T07:44:01.257Z,25.70
2022-10-19T07:46:29.602Z,26.60
2022-10-19T07:48:56.150Z,27.20
2022-10-19T07:51:22.699Z,27.70
2022-10-19T07:53:49.333Z,28.50
2022-10-19T07:56:16.847Z,29.40
2022-10-19T07:58:43.692Z,29.70
2022-10-19T08:01:11.960Z,29.70
2022-10-19T08:06:25.400Z,30.00
2022-10-19T08:08:52.528Z,29.70
2022-10-19T08:11:21.218Z,29.50
2022-10-19T08:13:47.875Z,29.60
2022-10-19T08:16:34.054Z,29.80
2022-10-19T08:19:02.334Z,30.00
2022-10-19T08:21:29.604Z,29.70
2022-10-19T08:23:56.048Z,28.80
2022-10-19T08:26:22.727Z,27.00
2022-10-19T08:28:51.750Z,24.90
2022-10-19T08:31:19.632Z,23.10
2022-10-19T08:33:46.111Z,21.60
2022-10-19T08:36:13.415Z,20.40
2022-10-19T08:38:40.607Z,19.60
2022-10-19T08:41:15.192Z,19.00
2022-10-19T08:43:48.432Z,19.00
2022-10-19T08:46:25.107Z,19.50
2022-10-19T08:48:51.789Z,20.00
2022-10-19T08:51:18.308Z,20.50
2022-10-19T08:53:44.706Z,20.90
2022-10-19T08:56:26.918Z,22.40
2022-10-19T08:59:12.560Z,23.00
2022-10-19T09:01:47.193Z,25.30
2022-10-19T09:04:16.628Z,26.50
2022-10-19T09:06:56.895Z,27.90
2022-10-19T09:09:23.480Z,29.10
2022-10-19T09:11:51.503Z,30.20
2022-10-19T09:14:25.658Z,31.40
2022-10-19T09:16:52.473Z,31.90
2022-10-19T09:19:25.509Z,32.20
2022-10-19T09:21:56.342Z,32.50
2022-10-19T09:24:37.266Z,32.60
2022-10-19T09:27:03.820Z,32.70
2022-10-19T09:29:36.503Z,33.20
2022-10-19T09:32:04.401Z,33.60
2022-10-19T09:34:43.554Z,34.60
2022-10-19T09:37:18.850Z,34.60
2022-10-19T09:39:54.044Z,34.80
2022-10-19T09:42:22.433Z,35.10
2022-10-19T09:44:50.375Z,36.00
2022-10-19T09:47:26.032Z,36.40
2022-10-19T09:50:05.091Z,36.90
2022-10-19T09:52:31.477Z,37.70
2022-10-19T09:55:00.155Z,37.30
2022-10-19T09:57:26.591Z,37.20
2022-10-19T09:59:53.248Z,37.50
2022-10-19T10:02:21.654Z,36.10
2022-10-19T10:05:04.038Z,36.60
2022-10-19T10:07:34.130Z,35.80
2022-10-19T10:10:00.791Z,35.80
2022-10-19T10:12:27.391Z,35.20
2022-10-19T10:14:56.112Z,35.20
2022-10-19T10:17:27.075Z,35.60
2022-10-19T10:19:59.607Z,35.60
2022-10-19T10:22:33.935Z,35.40
2022-10-19T10:25:00.997Z,35.90
2022-10-19T10:27:30.290Z,35.90
2022-10-19T10:32:28.935Z,35.70
2022-10-19T10:35:01.042Z,36.20
2022-10-19T10:37:30.276Z,36.30
2022-10-19T10:40:00.332Z,36.60
2022-10-19T10:42:50.467Z,36.30
2022-10-19T10:45:24.761Z,35.40
2022-10-19T10:47:52.045Z,34.50
2022-10-19T10:50:30.631Z,33.50
2022-10-19T10:52:57.124Z,32.30
2022-10-19T10:55:23.603Z,31.00
2022-10-19T10:57:51.675Z,30.30
2022-10-19T11:00:21.927Z,30.10
2022-10-19T11:02:54.248Z,30.00
2022-10-19T11:05:39.146Z,30.60
2022-10-19T11:08:14.359Z,30.90
2022-10-19T11:10:49.300Z,30.70
2022-10-19T11:13:17.599Z,29.90
2022-10-19T11:15:43.972Z,28.20
2022-10-19T11:18:10.364Z,26.50
2022-10-19T11:20:41.188Z,25.10
2022-10-19T11:23:07.872Z,23.90
2022-10-19T11:25:45.895Z,23.30
2022-10-19T11:28:18.054Z,22.80
2022-10-19T11:30:55.108Z,22.50
2022-10-19T11:33:32.295Z,22.40
2022-10-19T11:35:59.503Z,22.10
2022-10-19T11:38:48.051Z,21.90
2022-10-19T11:41:33.539Z,21.70
2022-10-19T11:44:03.033Z,21.70
2022-10-19T11:46:50.400Z,21.20
2022-10-19T11:49:34.872Z,20.90
2022-10-19T11:52:18.616Z,20.60
2022-10-19T11:55:04.156Z,20.60
2022-10-19T11:57:47.368Z,20.60
2022-10-19T12:00:37.626Z,20.50
2022-10-19T12:03:23.151Z,20.40
2022-10-19T12:05:54.125Z,20.60
2022-10-19T12:08:42.579Z,20.30
2022-10-19T12:11:09.092Z,20.10
2022-10-19T12:13:48.068Z,20.00
2022-10-19T12:16:15.157Z,19.90
2022-10-19T12:18:47.435Z,19.90
2022-10-19T12:21:24.226Z,19.70
2022-10-19T12:23:51.623Z,19.80
2022-10-19T12:26:19.991Z,19.70
2022-10-19T12:28:52.047Z,19.60
2022-10-19T12:31:18.551Z,19.60
2022-10-19T12:33:57.171Z,19.70
2022-10-19T12:36:32.413Z,19.50
2022-10-19T12:39:21.514Z,19.20
2022-10-19T12:41:54.269Z,18.70
2022-10-19T12:44:20.678Z,18.20
2022-10-19T12:46:53.118Z,18.00
2022-10-19T12:49:30.237Z,17.90
2022-10-19T12:51:57.555Z,18.00
2022-10-19T12:54:25.044Z,18.00
2022-10-19T12:56:55.709Z,18.00
2022-10-19T12:59:24.852Z,18.10
2022-10-19T13:01:51.843Z,18.20
2022-10-19T13:04:20.948Z,18.10
2022-10-19T13:06:51.751Z,18.10
2022-10-19T13:09:22.889Z,18.00
2022-10-19T13:12:09.571Z,17.90
2022-10-19T13:14:56.251Z,18.10
2022-10-19T13:17:38.156Z,18.00
2022-10-19T13:20:25.319Z,17.80
2022-10-19T13:23:12.963Z,17.60
2022-10-19T13:25:39.880Z,17.20
2022-10-19T13:28:06.283Z,17.10
2022-10-19T13:30:35.586Z,17.10
2022-10-19T13:33:20.871Z,17.00
2022-10-19T13:35:47.319Z,16.90
2022-10-19T13:38:16.759Z,16.90
2022-10-19T13:40:49.303Z,16.90
2022-10-19T13:43:20.843Z,17.00
2022-10-19T13:45:54.578Z,17.00
2022-10-19T13:48:30.751Z,16.90
2022-10-19T13:51:01.411Z,16.90
2022-10-19T13:53:38.324Z,16.90
2022-10-19T13:56:16.672Z,16.90
2022-10-19T13:58:43.063Z,17.00
2022-10-19T14:01:22.501Z,17.10
2022-10-19T14:03:58.309Z,17.30
2022-10-19T14:06:31.450Z,17.30
2022-10-19T14:09:15.216Z,17.40
2022-10-19T14:11:43.039Z,17.50
2022-10-19T14:14:15.508Z,17.60
2022-10-19T14:16:50.070Z,17.60
2022-10-19T14:19:26.585Z,17.60
2022-10-19T14:21:54.577Z,17.50
2022-10-19T14:24:28.753Z,17.40
2022-10-19T14:26:55.776Z,17.40
2022-10-19T14:29:22.263Z,17.40
2022-10-19T14:31:48.854Z,17.40
2022-10-19T14:34:16.144Z,17.40
2022-10-19T14:36:47.711Z,17.50
2022-10-19T14:39:25.810Z,17.50
2022-10-19T14:41:54.364Z,17.50
2022-10-19T14:44:27.780Z,17.40
2022-10-19T14:46:54.215Z,17.40
2022-10-19T14:49:20.675Z,17.40
2022-10-19T14:51:50.172Z,17.30
2022-10-19T14:54:16.547Z,17.30
2022-10-19T14:56:46.834Z,17.20
2022-10-19T14:59:13.244Z,17.20
2022-10-19T15:01:40.305Z,17.10
2022-10-19T15:04:06.862Z,17.10
2022-10-19T15:06:35.996Z,17.00
2022-10-19T15:09:04.723Z,16.90
2022-10-19T15:11:36.204Z,16.90
2022-10-19T15:14:05.917Z,16.80
2022-10-19T15:16:34.622Z,16.60
2022-10-19T15:19:05.319Z,16.60
2022-10-19T15:21:33.618Z,16.40
2022-10-19T15:24:07.843Z,16.30
2022-10-19T15:26:34.967Z,16.10
2022-10-19T15:29:08.512Z,15.90
2022-10-19T15:31:35.019Z,15.70
2022-10-19T15:34:02.067Z,15.60
2022-10-19T15:36:29.856Z,15.40
2022-10-19T15:39:17.724Z,15.30
2022-10-19T15:41:51.247Z,15.10
2022-10-19T15:44:40.684Z,15.00
2022-10-19T15:47:16.318Z,14.90
2022-10-19T15:49:42.744Z,14.80
2022-10-19T15:52:16.645Z,14.70
2022-10-19T15:54:43.124Z,14.70
2022-10-19T15:57:24.342Z,14.60
2022-10-19T15:59:50.811Z,14.60
2022-10-19T16:02:17.234Z,14.50
2022-10-19T16:04:43.660Z,14.40
2022-10-19T16:07:14.847Z,14.30
2022-10-19T16:09:41.273Z,14.30
2022-10-19T16:12:09.425Z,14.20
2022-10-19T16:14:36.780Z,14.10
2022-10-19T16:17:03.924Z,14.10
2022-10-19T16:19:30.511Z,14.00
2022-10-19T16:21:56.939Z,14.00
2022-10-19T16:24:23.431Z,13.90
2022-10-19T16:26:49.879Z,13.80
2022-10-19T16:29:16.361Z,13.80
2022-10-19T16:31:42.773Z,13.70
2022-10-19T16:34:09.197Z,13.70
2022-10-19T16:36:35.657Z,13.80
2022-10-19T16:39:02.572Z,13.70
2022-10-19T16:41:29.050Z,13.70
2022-10-19T16:43:56.011Z,13.70
2022-10-19T16:46:22.787Z,13.80
2022-10-19T16:48:49.264Z,13.80
2022-10-19T16:51:26.678Z,13.80
2022-10-19T16:53:55.239Z,13.70
2022-10-19T16:56:21.715Z,13.70
2022-10-19T16:58:48.152Z,13.60
2022-10-19T17:01:18.279Z,13.50
2022-10-19T17:03:46.264Z,13.40
2022-10-19T17:06:12.931Z,13.30
2022-10-19T17:09:02.646Z,13.30
2022-10-19T17:11:33.236Z,13.20
2022-10-19T17:14:00.689Z,13.10
2022-10-19T17:16:28.547Z,13.10
2022-10-19T17:18:56.374Z,13.00
2022-10-19T17:21:24.136Z,12.90
2022-10-19T17:23:54.678Z,12.80
2022-10-19T17:26:25.053Z,12.70
2022-10-19T17:28:51.470Z,12.70
2022-10-19T17:31:17.951Z,12.60
2022-10-19T17:33:44.551Z,12.50
2022-10-19T17:36:15.249Z,12.50
2022-10-19T17:38:42.056Z,12.40
2022-10-19T17:41:11.012Z,12.40
2022-10-19T17:43:38.416Z,12.30
2022-10-19T17:46:06.137Z,12.30
2022-10-19T17:48:33.707Z,12.20
2022-10-19T17:51:01.058Z,12.20
2022-10-19T17:53:27.685Z,12.10
2022-10-19T17:55:54.592Z,12.10
2022-10-19T17:58:21.424Z,12.00
2022-10-19T18:00:52.364Z,12.10
2022-10-19T18:03:18.877Z,12.10
2022-10-19T18:05:45.386Z,12.10
2022-10-19T18:08:11.803Z,12.10
2022-10-19T18:10:38.299Z,12.00
2022-10-19T18:13:04.707Z,12.00
2022-10-19T18:15:31.176Z,11.90
2022-10-19T18:17:58.028Z,11.90
2022-10-19T18:20:24.433Z,11.80
2022-10-19T18:22:50.852Z,11.80
2022-10-19T18:25:21.718Z,11.80
2022-10-19T18:27:57.221Z,11.80
2022-10-19T18:30:23.646Z,11.70
2022-10-19T18:32:50.084Z,11.70
2022-10-19T18:35:16.603Z,11.70
2022-10-19T18:37:43.016Z,11.70
2022-10-19T18:40:11.622Z,11.60
2022-10-19T18:42:38.164Z,11.60
2022-10-19T18:45:04.819Z,11.50
2022-10-19T18:47:31.424Z,11.50
2022-10-19T18:49:57.891Z,11.50
2022-10-19T18:52:24.345Z,11.40
2022-10-19T18:54:50.760Z,11.40
2022-10-19T18:57:17.224Z,11.30
2022-10-19T18:59:43.682Z,11.30
2022-10-19T19:02:17.240Z,11.30
2022-10-19T19:04:49.331Z,11.30
2022-10-19T19:07:15.740Z,11.20
2022-10-19T19:09:42.595Z,11.20
2022-10-19T19:12:09.362Z,11.10
2022-10-19T19:14:37.565Z,11.10
2022-10-19T19:17:04.112Z,11.10
2022-10-19T19:19:30.527Z,11.10
2022-10-19T19:21:57.980Z,11.00
2022-10-19T19:24:28.109Z,11.00
2022-10-19T19:26:54.941Z,11.00
2022-10-19T19:29:21.651Z,10.90
2022-10-19T19:31:48.367Z,10.90
2022-10-19T19:34:15.214Z,10.80
2022-10-19T19:36:46.807Z,10.80
2022-10-19T19:39:14.268Z,10.80
2022-10-19T19:41:40.874Z,10.70
2022-10-19T19:44:07.296Z,10.70
2022-10-19T19:46:33.818Z,10.60
2022-10-19T19:49:00.977Z,10.60
2022-10-19T19:51:27.944Z,10.60
2022-10-19T19:53:54.446Z,10.60
2022-10-19T19:56:21.392Z,10.50
2022-10-19T19:58:47.887Z,10.50
2022-10-19T20:01:21.126Z,10.50
2022-10-19T20:03:47.821Z,10.40
2022-10-19T20:06:15.476Z,10.40
2022-10-19T20:08:42.048Z,10.40
2022-10-19T20:11:10.169Z,10.40
2022-10-19T20:13:37.052Z,10.40
2022-10-19T20:16:12.456Z,10.40
2022-10-19T20:18:39.533Z,10.40
2022-10-19T20:21:06.194Z,10.40
2022-10-19T20:23:32.992Z,10.40
2022-10-19T20:25:59.402Z,10.40
2022-10-19T20:28:26.537Z,10.40
2022-10-19T20:31:03.302Z,10.40
2022-10-19T20:33:30.864Z,10.40
2022-10-19T20:35:57.410Z,10.40
2022-10-19T20:38:25.190Z,10.40
2022-10-19T20:40:52.030Z,10.40
2022-10-19T20:43:18.569Z,10.40
2022-10-19T20:45:45.097Z,10.40
2022-10-19T20:48:11.579Z,10.40
2022-10-19T20:50:38.211Z,10.40
2022-10-19T20:53:04.832Z,10.40
2022-10-19T20:55:32.419Z,10.40
2022-10-19T20:57:59.030Z,10.30
2022-10-19T21:00:25.452Z,10.30
2022-10-19T21:02:53.487Z,10.30
2022-10-19T21:05:19.896Z,10.30
2022-10-19T21:07:46.420Z,10.30
2022-10-19T21:10:12.899Z,10.30
2022-10-19T21:12:39.382Z,10.30
2022-10-19T21:15:06.055Z,10.30
2022-10-19T21:17:32.642Z,10.30
2022-10-19T21:19:59.174Z,10.20
2022-10-19T21:22:25.655Z,10.20
2022-10-19T21:24:52.187Z,10.20
2022-10-19T21:27:18.635Z,10.20
2022-10-19T21:29:45.097Z,10.10
2022-10-19T21:32:11.612Z,10.10
2022-10-19T21:34:38.119Z,10.10
2022-10-19T21:37:04.704Z,10.10
2022-10-19T21:39:31.274Z,10.10
2022-10-19T21:41:57.930Z,10.10
2022-10-19T21:44:24.455Z,10.00
2022-10-19T21:46:50.961Z,10.00
2022-10-19T21:49:17.526Z,10.00
2022-10-19T21:51:44.021Z,10.00
2022-10-19T21:54:12.396Z,9.90
2022-10-19T21:56:38.948Z,9.90
2022-10-19T21:59:05.752Z,9.90
2022-10-19T22:01:38.706Z,9.80
2022-10-19T22:04:08.849Z,9.80
2022-10-19T22:06:35.997Z,9.80
2022-10-19T22:09:04.172Z,9.70
2022-10-19T22:11:30.817Z,9.70
2022-10-19T22:13:58.349Z,9.70
2022-10-19T22:16:25.591Z,9.60
2022-10-19T22:18:52.604Z,9.60
2022-10-19T22:21:21.608Z,9.60
2022-10-19T22:23:55.386Z,9.60
2022-10-19T22:26:23.657Z,9.50
2022-10-19T22:28:50.233Z,9.50
2022-10-19T22:31:16.832Z,9.50
2022-10-19T22:33:49.501Z,9.40
2022-10-19T22:36:16.178Z,9.40
2022-10-19T22:38:42.720Z,9.40
2022-10-19T22:41:20.663Z,9.40
2022-10-19T22:43:54.811Z,9.40
2022-10-19T22:46:24.548Z,9.40
2022-10-19T22:49:01.638Z,9.30
2022-10-19T22:51:31.074Z,9.30
2022-10-19T22:53:57.649Z,9.30
2022-10-19T22:56:31.522Z,9.20
2022-10-19T22:58:58.915Z,9.20
2022-10-19T23:01:32.001Z,9.20
2022-10-19T23:03:59.069Z,9.20
2022-10-19T23:06:25.784Z,9.20
2022-10-19T23:08:56.325Z,9.20
2022-10-19T23:11:26.021Z,9.20
2022-10-19T23:13:56.793Z,9.20
2022-10-19T23:16:35.506Z,9.10
2022-10-19T23:19:06.359Z,9.10
2022-10-19T23:21:44.847Z,9.10
2022-10-19T23:24:23.415Z,9.10
2022-10-19T23:26:57.795Z,9.10
2022-10-19T23:29:30.221Z,9.10
2022-10-19T23:32:00.169Z,9.10
2022-10-19T23:34:40.236Z,9.10
2022-10-19T23:37:10.096Z,9.10
2022-10-19T23:39:36.661Z,9.00
2022-10-19T23:42:03.368Z,9.00
2022-10-19T23:44:33.239Z,9.00
2022-10-19T23:47:06.560Z,9.00
2022-10-19T23:49:38.447Z,9.00
2022-10-19T23:52:07.525Z,9.00
2022-10-19T23:54:36.873Z,8.90
2022-10-19T23:57:03.825Z,8.90
2022-10-19T23:59:35.113Z,8.90
